オウル の空港の天気 - METARとTAF

オウル空港 ( EFOU / OUL ) - フィンランド Oulunsalo
飛行場実況気象(Metar)
観測時間05/28 14:20 EEST (05/28 11:20 UTC)
風向・風速不定 1m/s
視程10km以上
天気現象
全天を覆う雲 雲底高度 700m
気温10℃
湿度66%
気圧998hPa
METAREFOU 281120Z AUTO VRB02KT 9999 OVC023 10/04 Q0998
過去の天気等 Google飛行場航空写真 Wunderground天気予報

過去48時間のMETAR

飛行場予報(TAF)
発表時間: 5/28 11:36 EEST (5/28 08:36 UTC)
予報対象時間: 28日12時 EEST ~ 29日12時 EEST
風向・風速北東 2m/s
視程10km以上
全天の8割程度の雲 雲底高度 760m
28日17時 EEST ~ 28日21時 EEST に 確率 30% で一時的に
全天の8割程度の雲 雲底高度 430m
29日1時 EEST から 確率 30% で
視程2000m
天気現象散在した霧
TAF EFOU 280836Z 2809/2909 04003KT 9999 BKN025
PROB30 TEMPO 2814/2818 BKN014
PROB30 2822/2904 2000 BCFG